»·PEaware :: N6956H KBUR-KSBP

N6956H :: KBUR-KSBP

FLIGHT INFORMATION

Flight Status: Arrived
Operator: Privately registered:
United States
More flights under this callsign
Pilot: Joe C. (19058)
Aircraft: SOCATA TBM-900
(TBM9)
More flights by this aircraft type
Origin: KBUR Bob Hope-Burbank
United States
Destination: KSBP San Luis Co Regl
United States
More flights between these airports :: More routes between these airports
Route: VNY3 FIM V597 RZS V12 GVO T261 MQO
File this flight plan on PilotEdge
Remarks:
Altitude:
(Current/Filed)
26,000ft
Speed:
(Current/Filed)
300kts
Departed: 31-Oct-18 05:42 PM
Arrived: 31-Oct-18 06:25 PM
Distance/Time
Traveled:
129nm/0:43
Distance/Time
To Go:
Arrived

Flight Plot

Page will automatically refresh every two minutes.

Flight plan parsing failed; only flown route is shown


Map Options




Map Legend


Flown Route
Filed Route
Departure Airport
Arrival Airport
Navaid (VOR, NDB)
Fix

Horizontal Profiles

Position Reports

Time Latitude Longitude Heading Altitude Ground
Speed
31-Oct-18 17:25 34.200348 -118.359527 349 722ft 0kts
31-Oct-18 17:26 34.200348 -118.359527 349 722ft 0kts
31-Oct-18 17:27 34.200348 -118.359527 349 722ft 0kts
31-Oct-18 17:28 34.200348 -118.359527 349 722ft 0kts
31-Oct-18 17:29 34.200348 -118.359527 349 722ft 0kts
31-Oct-18 17:30 34.200348 -118.359527 349 722ft 0kts
31-Oct-18 17:31 34.200349 -118.359528 349 722ft 0kts
31-Oct-18 17:32 34.200349 -118.359528 349 722ft 0kts
31-Oct-18 17:33 34.200349 -118.359528 349 722ft 0kts
31-Oct-18 17:34 34.200349 -118.359528 349 722ft 0kts
31-Oct-18 17:35 34.200349 -118.359528 349 722ft 0kts
31-Oct-18 17:36 34.200349 -118.359528 349 722ft 0kts
31-Oct-18 17:37 34.200345 -118.359409 175 722ft 0kts
31-Oct-18 17:38 34.200345 -118.359409 175 722ft 0kts
31-Oct-18 17:39 34.200165 -118.359385 166 721ft 4kts
31-Oct-18 17:40 34.200539 -118.358382 347 720ft 6kts
31-Oct-18 17:41 34.206834 -118.360114 346 745ft 27kts
31-Oct-18 17:42 34.211936 -118.361451 18 768ft 0kts
31-Oct-18 17:43 34.211938 -118.361450 19 768ft 0kts
31-Oct-18 17:44 34.194156 -118.355900 188 1252ft 127kts
31-Oct-18 17:45 34.168730 -118.383502 225 3306ft 123kts
31-Oct-18 17:46 34.144087 -118.412184 225 5146ft 126kts
31-Oct-18 17:47 34.137900 -118.452761 267 7178ft 130kts
31-Oct-18 17:48 34.133944 -118.495616 266 9086ft 133kts
31-Oct-18 17:49 34.144432 -118.534745 312 10808ft 132kts
31-Oct-18 17:50 34.167479 -118.570416 311 12622ft 140kts
31-Oct-18 17:51 34.189901 -118.606770 312 14814ft 136kts
31-Oct-18 17:52 34.212247 -118.643351 313 16761ft 138kts
31-Oct-18 17:53 34.234639 -118.680136 314 18769ft 138kts
31-Oct-18 17:54 34.257330 -118.717448 315 20605ft 139kts
31-Oct-18 17:55 34.280202 -118.755101 316 22273ft 141kts
31-Oct-18 17:56 34.303324 -118.793200 317 23791ft 142kts
31-Oct-18 17:57 34.326731 -118.831832 318 25180ft 144kts
31-Oct-18 17:58 34.351806 -118.872997 316 26111ft 180kts
31-Oct-18 17:59 34.368103 -118.946048 293 26093ft 254kts
31-Oct-18 18:00 34.383435 -119.033894 292 26080ft 276kts
31-Oct-18 18:01 34.399485 -119.126259 292 26079ft 285kts
31-Oct-18 18:02 34.415844 -119.220794 292 26081ft 288kts
31-Oct-18 18:03 34.432235 -119.315969 292 26083ft 289kts
31-Oct-18 18:04 34.448584 -119.411287 292 26083ft 290kts
31-Oct-18 18:05 34.464909 -119.506999 291 26082ft 290kts
31-Oct-18 18:06 34.481301 -119.603206 291 25634ft 305kts
31-Oct-18 18:07 34.499091 -119.708592 289 23693ft 327kts
31-Oct-18 18:08 34.540339 -119.796775 321 21656ft 297kts
31-Oct-18 18:09 34.598442 -119.865808 319 19648ft 290kts
31-Oct-18 18:10 34.655218 -119.934088 319 17645ft 288kts
31-Oct-18 18:11 34.711890 -120.002480 318 15638ft 288kts
31-Oct-18 18:12 34.767468 -120.069560 318 13609ft 269kts
31-Oct-18 18:13 34.819008 -120.131922 317 11580ft 258kts
31-Oct-18 18:14 34.869446 -120.193088 316 9567ft 256kts
31-Oct-18 18:15 34.919379 -120.253781 316 7559ft 247kts
31-Oct-18 18:16 34.964930 -120.309229 316 5976ft 214kts
31-Oct-18 18:17 35.003320 -120.356024 316 5976ft 179kts
31-Oct-18 18:18 35.036886 -120.396991 316 5984ft 165kts
31-Oct-18 18:19 35.072571 -120.440590 316 4435ft 186kts
31-Oct-18 18:20 35.107642 -120.483543 316 2956ft 152kts
31-Oct-18 18:21 35.131349 -120.512563 317 2987ft 105kts
31-Oct-18 18:22 35.152274 -120.535545 325 3061ft 90kts
31-Oct-18 18:23 35.173634 -120.555747 321 3346ft 106kts
31-Oct-18 18:24 35.195750 -120.581093 318 2592ft 110kts
31-Oct-18 18:25 35.215783 -120.605975 315 1316ft 105kts
31-Oct-18 18:27 35.231208 -120.630270 302 318ft 79kts
31-Oct-18 18:28 35.239701 -120.644123 25 174ft 7kts

Navigation Log

Ident Type
Flight plan parsing failed, navigation log unavailable